Time;durP1;ratioP1;P1;durP2;ratioP2;P2;SDS_P1;SDS_P2;PMS_P1;PMS_P2;Temp;Humidity;BMP_temperature;BMP_pressure;BME280_temperature;BME280_humidity;BME280_pressure;Samples;Min_cycle;Max_cycle;Signal;HPM_P1;HPM_P2
2022/11/07 00:01:39;;;;;;;17.17;3.15;;;;;;;;;;4983872;28;20026;-62
2022/11/07 00:04:05;;;;;;;21.52;3.42;;;;;;;;;;4979913;28;20042;-61
2022/11/07 00:06:32;;;;;;;22.02;4.55;;;;;;;;;;4988895;28;20471;-61
2022/11/07 00:08:58;;;;;;;19.08;3.58;;;;;;;;;;4976272;28;20049;-62
2022/11/07 00:11:24;;;;;;;24.38;2.95;;;;;;;;;;4986124;28;20542;-61
2022/11/07 00:13:50;;;;;;;18.85;3.05;;;;;;;;;;4982802;28;20026;-62
2022/11/07 00:16:16;;;;;;;14.32;2.92;;;;;;;;;;4978741;28;20035;-62
2022/11/07 00:18:42;;;;;;;19.27;3.22;;;;;;;;;;4988441;28;20015;-62
2022/11/07 00:21:09;;;;;;;15.27;3.65;;;;;;;;;;4977132;28;20023;-62
2022/11/07 00:23:36;;;;;;;22.80;3.58;;;;;;;;;;4982964;28;20449;-62
2022/11/07 00:26:06;;;;;;;18.02;3.08;;;;;;;;;;4984169;28;20072;-62
2022/11/07 00:28:32;;;;;;;24.33;3.47;;;;;;;;;;4976753;28;20043;-61
2022/11/07 00:30:59;;;;;;;16.58;2.92;;;;;;;;;;4988388;28;20493;-61
2022/11/07 00:33:25;;;;;;;25.45;4.45;;;;;;;;;;4978912;28;20026;-62
2022/11/07 00:35:51;;;;;;;19.15;3.75;;;;;;;;;;4980647;28;20027;-62
2022/11/07 00:38:17;;;;;;;17.48;3.75;;;;;;;;;;4984450;28;20456;-61
2022/11/07 00:40:43;;;;;;;23.13;3.13;;;;;;;;;;4987852;28;20030;-61
2022/11/07 00:43:09;;;;;;;25.70;4.80;;;;;;;;;;4972457;28;20384;-62
2022/11/07 00:45:35;;;;;;;22.25;4.32;;;;;;;;;;4972502;28;20037;-61
2022/11/07 00:48:01;;;;;;;16.90;3.10;;;;;;;;;;4976711;28;20062;-62
2022/11/07 00:50:27;;;;;;;26.70;3.50;;;;;;;;;;4983074;28;20411;-61
2022/11/07 00:52:56;;;;;;;22.90;3.63;;;;;;;;;;4981325;28;20590;-62
2022/11/07 00:55:22;;;;;;;27.35;4.68;;;;;;;;;;4985497;28;20053;-62
2022/11/07 00:57:48;;;;;;;28.95;5.32;;;;;;;;;;4974953;28;20035;-62
2022/11/07 01:00:14;;;;;;;30.85;4.65;;;;;;;;;;4986975;28;20487;-61
2022/11/07 01:02:40;;;;;;;25.75;5.20;;;;;;;;;;4979029;28;20046;-62
2022/11/07 01:05:11;;;;;;;24.58;4.15;;;;;;;;;;4979770;28;20042;-62
2022/11/07 01:07:38;;;;;;;19.73;3.45;;;;;;;;;;4987200;28;20079;-61
2022/11/07 01:10:05;;;;;;;24.92;4.07;;;;;;;;;;4974933;28;20039;-61
2022/11/07 01:12:35;;;;;;;21.15;4.30;;;;;;;;;;4991408;28;20434;-62
2022/11/07 01:15:02;;;;;;;32.15;4.60;;;;;;;;;;4990281;28;20038;-61
2022/11/07 01:17:28;;;;;;;21.70;3.85;;;;;;;;;;4991287;28;20055;-61
2022/11/07 01:19:55;;;;;;;27.73;4.65;;;;;;;;;;4990812;28;20026;-62
2022/11/07 01:22:21;;;;;;;24.60;4.15;;;;;;;;;;4978750;28;20015;-61
2022/11/07 01:24:47;;;;;;;21.33;3.97;;;;;;;;;;4987757;28;20056;-62
2022/11/07 01:27:13;;;;;;;21.58;4.60;;;;;;;;;;4975427;28;20041;-62
2022/11/07 01:29:39;;;;;;;24.15;4.28;;;;;;;;;;4983932;28;20376;-62
2022/11/07 01:32:05;;;;;;;33.03;6.50;;;;;;;;;;4981319;28;20045;-61
2022/11/07 01:34:31;;;;;;;33.15;4.22;;;;;;;;;;4977270;28;20031;-62
2022/11/07 01:36:57;;;;;;;24.17;3.50;;;;;;;;;;4987362;28;20031;-61
2022/11/07 01:39:23;;;;;;;19.25;4.40;;;;;;;;;;4976491;28;20035;-61
2022/11/07 01:41:50;;;;;;;28.75;5.85;;;;;;;;;;4982841;28;20035;-62
2022/11/07 01:44:16;;;;;;;28.45;4.40;;;;;;;;;;4982714;28;20014;-62
2022/11/07 01:46:43;;;;;;;27.63;4.15;;;;;;;;;;4976056;28;20054;-62
2022/11/07 01:49:09;;;;;;;27.52;4.22;;;;;;;;;;4981785;28;20054;-62
2022/11/07 01:51:38;;;;;;;22.30;5.05;;;;;;;;;;4990811;28;20072;-61
2022/11/07 01:54:05;;;;;;;26.10;4.15;;;;;;;;;;4990678;28;20034;-62
2022/11/07 01:56:32;;;;;;;19.70;3.17;;;;;;;;;;4990789;28;20034;-62
2022/11/07 01:58:59;;;;;;;24.20;3.88;;;;;;;;;;4988720;28;20030;-62
2022/11/07 02:01:25;;;;;;;23.67;3.90;;;;;;;;;;4976037;28;20041;-62
2022/11/07 02:03:52;;;;;;;27.48;5.70;;;;;;;;;;4982704;28;20077;-62
2022/11/07 02:06:26;;;;;;;29.60;4.68;;;;;;;;;;4982863;28;20057;-62
2022/11/07 02:08:52;;;;;;;36.25;5.25;;;;;;;;;;4974588;28;20095;-61
2022/11/07 02:11:19;;;;;;;31.23;4.55;;;;;;;;;;4974577;28;20031;-62
2022/11/07 02:13:45;;;;;;;32.50;5.35;;;;;;;;;;4983101;28;20029;-62
2022/11/07 02:16:11;;;;;;;29.63;6.55;;;;;;;;;;4981318;28;20033;-61
2022/11/07 02:18:39;;;;;;;26.23;3.80;;;;;;;;;;4976673;28;20475;-62
2022/11/07 02:21:10;;;;;;;31.60;4.68;;;;;;;;;;4986497;28;20030;-62
2022/11/07 02:23:41;;;;;;;33.30;4.13;;;;;;;;;;4976566;28;20031;-61
2022/11/07 02:26:08;;;;;;;19.33;3.67;;;;;;;;;;4980836;28;20035;-61
2022/11/07 02:28:36;;;;;;;26.45;4.35;;;;;;;;;;4984062;28;20022;-61
2022/11/07 02:31:02;;;;;;;21.05;4.40;;;;;;;;;;4973953;28;20483;-62
2022/11/07 02:33:28;;;;;;;25.15;3.67;;;;;;;;;;4986109;28;20031;-62
2022/11/07 02:35:54;;;;;;;25.90;4.32;;;;;;;;;;4978428;28;20022;-62
2022/11/07 02:38:22;;;;;;;22.38;3.30;;;;;;;;;;4978859;28;20485;-61
2022/11/07 02:40:53;;;;;;;19.10;3.80;;;;;;;;;;4985424;28;20034;-62
2022/11/07 02:43:22;;;;;;;23.67;4.53;;;;;;;;;;4973631;28;20100;-62
2022/11/07 02:45:49;;;;;;;21.67;5.90;;;;;;;;;;4981539;28;20369;-62
2022/11/07 02:48:16;;;;;;;40.67;4.57;;;;;;;;;;4980955;28;20031;-62
2022/11/07 02:50:42;;;;;;;24.45;4.03;;;;;;;;;;4986495;28;20418;-61
2022/11/07 02:53:08;;;;;;;27.95;4.03;;;;;;;;;;4973697;28;20452;-61
2022/11/07 02:55:34;;;;;;;26.10;4.82;;;;;;;;;;4985282;28;20019;-61
2022/11/07 02:58:00;;;;;;;27.55;5.28;;;;;;;;;;4978426;28;20109;-61
2022/11/07 03:00:27;;;;;;;22.83;3.83;;;;;;;;;;4978485;28;20085;-62
2022/11/07 03:02:53;;;;;;;28.52;4.90;;;;;;;;;;4985726;28;20457;-62
2022/11/07 03:05:20;;;;;;;20.83;3.60;;;;;;;;;;4973446;28;20475;-62
2022/11/07 03:07:47;;;;;;;26.75;4.45;;;;;;;;;;4983920;28;20031;-61
2022/11/07 03:10:14;;;;;;;30.15;4.47;;;;;;;;;;4979953;28;20026;-61
2022/11/07 03:12:40;;;;;;;29.65;4.63;;;;;;;;;;4976360;28;20041;-61
2022/11/07 03:15:07;;;;;;;20.08;4.15;;;;;;;;;;4986390;28;20034;-61
2022/11/07 03:17:33;;;;;;;17.40;3.83;;;;;;;;;;4974593;28;20121;-61
2022/11/07 03:19:59;;;;;;;30.13;4.78;;;;;;;;;;4982058;28;20027;-61
2022/11/07 03:22:26;;;;;;;33.17;4.85;;;;;;;;;;4981501;28;20035;-61
2022/11/07 03:24:52;;;;;;;28.25;4.22;;;;;;;;;;4975041;28;20023;-62
2022/11/07 03:27:18;;;;;;;29.38;4.18;;;;;;;;;;4985484;28;20042;-61
2022/11/07 03:29:45;;;;;;;33.30;4.13;;;;;;;;;;4974721;28;20409;-62
2022/11/07 03:32:11;;;;;;;24.52;4.75;;;;;;;;;;4982146;28;20110;-62
2022/11/07 03:34:37;;;;;;;25.35;3.67;;;;;;;;;;4989403;28;20030;-61
2022/11/07 03:37:03;;;;;;;23.48;4.68;;;;;;;;;;4973474;28;20050;-61
2022/11/07 03:39:29;;;;;;;20.02;3.53;;;;;;;;;;4985784;28;20015;-62
2022/11/07 03:41:55;;;;;;;22.52;4.28;;;;;;;;;;4976773;28;20026;-62
2022/11/07 03:44:22;;;;;;;28.67;4.15;;;;;;;;;;4978755;28;20475;-62
2022/11/07 03:46:48;;;;;;;29.10;4.35;;;;;;;;;;4983718;28;20041;-61
2022/11/07 03:49:14;;;;;;;23.45;4.32;;;;;;;;;;4985271;28;20360;-62
2022/11/07 03:51:40;;;;;;;21.02;4.63;;;;;;;;;;4978280;28;20433;-61
2022/11/07 03:54:06;;;;;;;25.70;4.15;;;;;;;;;;4970787;28;20030;-62
2022/11/07 03:56:32;;;;;;;27.85;4.00;;;;;;;;;;4984372;28;20637;-62
2022/11/07 03:58:58;;;;;;;24.30;5.03;;;;;;;;;;4977246;28;20034;-62
2022/11/07 04:01:25;;;;;;;31.25;4.97;;;;;;;;;;4988381;28;20491;-61
2022/11/07 04:03:51;;;;;;;26.45;4.68;;;;;;;;;;4978467;28;20121;-61
2022/11/07 04:06:17;;;;;;;20.75;4.30;;;;;;;;;;4983293;28;20023;-62
2022/11/07 04:08:43;;;;;;;22.77;3.75;;;;;;;;;;4985590;28;20057;-62
2022/11/07 04:17:17;;;;;;;26.23;4.40;;;;;;;;;;4976036;28;20182;-61
2022/11/07 04:19:25;;;;;;;25.92;4.28;;;;;;;;;;4988284;28;20034;-61
2022/11/07 04:21:51;;;;;;;24.73;4.18;;;;;;;;;;4978353;28;20018;-62
2022/11/07 04:24:17;;;;;;;25.27;4.47;;;;;;;;;;4983018;28;20018;-62
2022/11/07 04:29:28;;;;;;;26.67;4.13;;;;;;;;;;4977463;28;20073;-62
2022/11/07 04:31:54;;;;;;;28.38;4.07;;;;;;;;;;4983799;28;20023;-61
2022/11/07 04:34:20;;;;;;;29.85;4.15;;;;;;;;;;4982311;28;20081;-61
2022/11/07 04:36:46;;;;;;;37.22;4.97;;;;;;;;;;4980595;28;20477;-61
2022/11/07 04:39:12;;;;;;;23.17;3.92;;;;;;;;;;4979860;28;20030;-62
2022/11/07 04:41:38;;;;;;;25.98;4.35;;;;;;;;;;4983595;28;20458;-61
2022/11/07 04:44:05;;;;;;;26.45;4.68;;;;;;;;;;4983788;28;20068;-62
2022/11/07 04:46:31;;;;;;;27.90;4.65;;;;;;;;;;4980700;28;20027;-61
2022/11/07 04:48:57;;;;;;;35.28;5.00;;;;;;;;;;4985501;28;20061;-62
2022/11/07 04:51:23;;;;;;;32.15;6.57;;;;;;;;;;4980918;28;20033;-62
2022/11/07 04:53:49;;;;;;;34.03;5.13;;;;;;;;;;4991107;28;20519;-62
2022/11/07 04:56:15;;;;;;;30.00;3.75;;;;;;;;;;4975628;28;20111;-62
2022/11/07 04:58:41;;;;;;;28.63;5.25;;;;;;;;;;4988097;28;20026;-61
2022/11/07 05:01:07;;;;;;;31.33;4.63;;;;;;;;;;4974318;28;20028;-61
2022/11/07 05:03:33;;;;;;;29.52;5.50;;;;;;;;;;4990518;28;20046;-61
2022/11/07 05:05:59;;;;;;;24.38;4.68;;;;;;;;;;4976236;28;20031;-61
2022/11/07 05:08:26;;;;;;;34.58;4.57;;;;;;;;;;4971645;28;20109;-61
2022/11/07 05:10:52;;;;;;;32.60;5.95;;;;;;;;;;4972503;28;20484;-61
2022/11/07 05:13:18;;;;;;;33.22;4.82;;;;;;;;;;4972299;28;20480;-61
2022/11/07 05:15:44;;;;;;;37.05;6.20;;;;;;;;;;4972284;28;20023;-62
2022/11/07 05:18:10;;;;;;;23.27;4.93;;;;;;;;;;4973012;28;20066;-62
2022/11/07 05:20:37;;;;;;;18.13;4.07;;;;;;;;;;4989882;28;20039;-61
2022/11/07 05:23:14;;;;;;;22.80;3.65;;;;;;;;;;4991312;28;20488;-61
2022/11/07 05:25:46;;;;;;;29.48;5.03;;;;;;;;;;4991356;28;20034;-62
2022/11/07 05:28:13;;;;;;;39.72;4.85;;;;;;;;;;4991575;28;20042;-62
2022/11/07 05:30:40;;;;;;;22.05;4.70;;;;;;;;;;4988791;28;20033;-62
2022/11/07 05:33:10;;;;;;;22.67;4.68;;;;;;;;;;4985681;28;20059;-61
2022/11/07 05:35:36;;;;;;;32.28;4.45;;;;;;;;;;4978536;28;20038;-61
2022/11/07 05:38:02;;;;;;;29.35;4.55;;;;;;;;;;4989684;28;20030;-61
2022/11/07 05:40:29;;;;;;;33.90;4.45;;;;;;;;;;4986838;28;20026;-62
2022/11/07 05:43:01;;;;;;;25.52;4.60;;;;;;;;;;4991015;28;20029;-62
2022/11/07 05:45:28;;;;;;;25.45;5.05;;;;;;;;;;4974644;28;20114;-62
2022/11/07 05:48:01;;;;;;;35.55;5.25;;;;;;;;;;4986789;28;20034;-62
2022/11/07 05:50:27;;;;;;;19.20;3.65;;;;;;;;;;4976477;28;20067;-61
2022/11/07 05:52:54;;;;;;;30.02;4.57;;;;;;;;;;4986227;28;20079;-62
2022/11/07 05:55:20;;;;;;;27.83;4.47;;;;;;;;;;4982616;28;20035;-62
2022/11/07 05:57:46;;;;;;;25.52;4.47;;;;;;;;;;4981052;28;20161;-61
2022/11/07 06:00:13;;;;;;;23.45;4.47;;;;;;;;;;4982363;28;20033;-61
2022/11/07 06:02:39;;;;;;;23.73;4.80;;;;;;;;;;4980113;28;20035;-62
2022/11/07 06:05:06;;;;;;;32.00;4.47;;;;;;;;;;4981804;28;20030;-62
2022/11/07 06:07:36;;;;;;;26.05;4.53;;;;;;;;;;4981492;28;20134;-61
2022/11/07 06:10:02;;;;;;;28.27;4.25;;;;;;;;;;4982648;28;20088;-62
2022/11/07 06:12:28;;;;;;;22.10;4.68;;;;;;;;;;4979293;28;20054;-61
2022/11/07 06:14:55;;;;;;;33.75;5.28;;;;;;;;;;4979359;28;20468;-61
2022/11/07 06:17:21;;;;;;;27.70;4.03;;;;;;;;;;4984924;28;20031;-62
2022/11/07 06:19:47;;;;;;;35.20;4.28;;;;;;;;;;4973859;28;20400;-61
2022/11/07 06:22:13;;;;;;;38.10;5.25;;;;;;;;;;4984464;28;20101;-61
2022/11/07 06:24:39;;;;;;;26.15;4.80;;;;;;;;;;4981202;28;20031;-61
2022/11/07 06:27:05;;;;;;;26.77;4.10;;;;;;;;;;4974889;28;20037;-62
2022/11/07 06:29:31;;;;;;;21.58;4.30;;;;;;;;;;4986665;28;20030;-61
2022/11/07 06:31:57;;;;;;;17.80;3.67;;;;;;;;;;4974325;28;20074;-62
2022/11/07 06:34:23;;;;;;;35.83;4.72;;;;;;;;;;4984842;28;20117;-61
2022/11/07 06:36:55;;;;;;;24.08;3.97;;;;;;;;;;4979699;28;20031;-61
2022/11/07 06:39:22;;;;;;;29.10;5.63;;;;;;;;;;4981409;28;20519;-61
2022/11/07 06:41:48;;;;;;;27.92;4.85;;;;;;;;;;4979691;28;20062;-64
2022/11/07 06:44:15;;;;;;;25.92;4.43;;;;;;;;;;4986865;28;20031;-61
2022/11/07 06:46:41;;;;;;;21.85;4.05;;;;;;;;;;4981853;28;20396;-62
2022/11/07 06:49:07;;;;;;;27.17;4.47;;;;;;;;;;4989795;28;20544;-62
2022/11/07 06:51:33;;;;;;;28.58;5.57;;;;;;;;;;4983160;28;20042;-61
2022/11/07 06:53:59;;;;;;;31.42;6.47;;;;;;;;;;4980102;28;20080;-62
2022/11/07 06:56:25;;;;;;;38.20;5.40;;;;;;;;;;4981676;28;20034;-61
2022/11/07 06:58:51;;;;;;;28.35;4.32;;;;;;;;;;4980939;28;20034;-62
2022/11/07 07:01:18;;;;;;;30.20;5.00;;;;;;;;;;5004194;28;20571;-61
2022/11/07 07:03:44;;;;;;;26.52;4.38;;;;;;;;;;4983205;28;20087;-61
2022/11/07 07:06:15;;;;;;;33.80;4.72;;;;;;;;;;4985114;28;20395;-62
2022/11/07 07:08:41;;;;;;;22.42;4.80;;;;;;;;;;4979975;28;20139;-61
2022/11/07 07:11:08;;;;;;;25.13;4.75;;;;;;;;;;4988120;28;20038;-61
2022/11/07 07:13:35;;;;;;;25.75;3.90;;;;;;;;;;4980838;28;20051;-61
2022/11/07 07:16:01;;;;;;;35.88;6.80;;;;;;;;;;4980335;28;20027;-62
2022/11/07 07:18:27;;;;;;;23.60;5.07;;;;;;;;;;4971926;28;20038;-61
2022/11/07 07:21:01;;;;;;;31.15;4.40;;;;;;;;;;4981175;28;20108;-61
2022/11/07 07:23:27;;;;;;;27.70;4.28;;;;;;;;;;4989133;28;20034;-62
2022/11/07 07:25:53;;;;;;;27.10;5.20;;;;;;;;;;4980812;28;20103;-61
2022/11/07 07:28:19;;;;;;;30.50;4.90;;;;;;;;;;4984133;28;20489;-61
2022/11/07 07:30:45;;;;;;;29.77;6.32;;;;;;;;;;4986461;28;20038;-61
2022/11/07 07:33:12;;;;;;;29.17;4.63;;;;;;;;;;4974054;28;20043;-62
2022/11/07 07:35:38;;;;;;;30.20;5.90;;;;;;;;;;4980033;28;20493;-68
2022/11/07 07:38:04;;;;;;;24.90;4.82;;;;;;;;;;4988337;28;20027;-61
2022/11/07 07:40:30;;;;;;;21.73;4.78;;;;;;;;;;4982948;28;20050;-61
2022/11/07 07:42:56;;;;;;;29.90;5.05;;;;;;;;;;4987466;28;20031;-61
2022/11/07 07:45:22;;;;;;;28.65;4.32;;;;;;;;;;4982099;28;20344;-61
2022/11/07 07:47:48;;;;;;;32.60;5.25;;;;;;;;;;4983488;28;20035;-61
2022/11/07 07:50:14;;;;;;;28.48;5.30;;;;;;;;;;4982489;28;20026;-62
2022/11/07 07:52:41;;;;;;;22.92;4.32;;;;;;;;;;4981949;28;20083;-61
2022/11/07 07:55:08;;;;;;;20.38;5.60;;;;;;;;;;4976167;28;20032;-61
2022/11/07 07:57:41;;;;;;;33.67;5.60;;;;;;;;;;4990929;28;20031;-61
2022/11/07 08:00:07;;;;;;;;;;;;;;;;;;4976283;28;20038;-62
2022/11/07 08:02:37;;;;;;;35.55;5.53;;;;;;;;;;4984697;28;20154;-61
2022/11/07 08:05:04;;;;;;;22.08;4.75;;;;;;;;;;4979008;28;20443;-62
2022/11/07 08:07:30;;;;;;;28.52;4.53;;;;;;;;;;4981613;28;20031;-61
2022/11/07 08:09:56;;;;;;;27.95;6.47;;;;;;;;;;4982707;28;20034;-61
2022/11/07 08:12:22;;;;;;;26.00;4.88;;;;;;;;;;4978493;28;20056;-61
2022/11/07 08:14:48;;;;;;;27.92;5.70;;;;;;;;;;4980286;28;20030;-62
2022/11/07 08:17:14;;;;;;;25.45;5.70;;;;;;;;;;4979383;28;20077;-62
2022/11/07 08:19:40;;;;;;;24.10;5.57;;;;;;;;;;4980630;28;20043;-61
2022/11/07 08:22:06;;;;;;;24.08;4.90;;;;;;;;;;4982599;28;20030;-62
2022/11/07 08:24:33;;;;;;;29.30;6.43;;;;;;;;;;4978562;28;20030;-61
2022/11/07 08:26:59;;;;;;;29.65;4.93;;;;;;;;;;4985248;28;20042;-61
2022/11/07 08:29:25;;;;;;;18.67;4.40;;;;;;;;;;4988300;28;20026;-61
2022/11/07 08:31:51;;;;;;;28.05;4.97;;;;;;;;;;4979532;28;20407;-61
2022/11/07 08:34:18;;;;;;;26.40;5.97;;;;;;;;;;4983610;28;20034;-62
2022/11/07 08:36:44;;;;;;;31.17;6.20;;;;;;;;;;4983780;28;20027;-62
2022/11/07 08:39:10;;;;;;;26.73;5.80;;;;;;;;;;4978929;28;20432;-61
2022/11/07 08:41:36;;;;;;;26.33;4.32;;;;;;;;;;4985298;28;20463;-62
2022/11/07 08:44:02;;;;;;;35.70;6.53;;;;;;;;;;4982506;28;20023;-62
2022/11/07 08:46:28;;;;;;;31.80;5.00;;;;;;;;;;4984426;28;20491;-61
2022/11/07 08:48:54;;;;;;;34.45;6.32;;;;;;;;;;4978912;28;20030;-62
2022/11/07 08:51:20;;;;;;;26.92;4.68;;;;;;;;;;4983270;28;20434;-61
2022/11/07 08:53:46;;;;;;;27.55;5.47;;;;;;;;;;4988015;28;20125;-61
2022/11/07 08:56:12;;;;;;;27.55;4.85;;;;;;;;;;4986393;28;20088;-62
2022/11/07 08:58:38;;;;;;;26.95;5.32;;;;;;;;;;4980025;28;20492;-61
2022/11/07 09:01:06;;;;;;;28.83;5.00;;;;;;;;;;4985671;28;20026;-61
2022/11/07 09:03:35;;;;;;;40.67;5.97;;;;;;;;;;4979339;28;20130;-62
2022/11/07 09:06:01;;;;;;;29.10;6.18;;;;;;;;;;4982712;28;20102;-61
2022/11/07 09:08:27;;;;;;;27.95;5.93;;;;;;;;;;4986724;28;20019;-61
2022/11/07 09:10:53;;;;;;;28.25;4.28;;;;;;;;;;4984524;28;20014;-61
2022/11/07 09:13:20;;;;;;;26.40;4.47;;;;;;;;;;4976315;28;20049;-62
2022/11/07 09:15:46;;;;;;;27.40;5.22;;;;;;;;;;4983057;28;20113;-61
2022/11/07 09:18:12;;;;;;;30.58;4.53;;;;;;;;;;4979679;28;20058;-61
2022/11/07 09:20:38;;;;;;;31.08;5.80;;;;;;;;;;4978257;28;20038;-61
2022/11/07 09:23:04;;;;;;;39.30;4.88;;;;;;;;;;4976094;28;20022;-61
2022/11/07 09:25:30;;;;;;;24.23;5.45;;;;;;;;;;4988949;28;20019;-62
2022/11/07 09:28:01;;;;;;;27.17;5.78;;;;;;;;;;4982375;28;20081;-61
2022/11/07 09:30:27;;;;;;;28.67;6.65;;;;;;;;;;4982184;28;20030;-61
2022/11/07 09:32:55;;;;;;;28.95;6.63;;;;;;;;;;4977301;28;20455;-61
2022/11/07 09:35:21;;;;;;;31.05;4.47;;;;;;;;;;4981118;28;20031;-61
2022/11/07 09:37:49;;;;;;;28.63;5.28;;;;;;;;;;4981622;28;20106;-61
2022/11/07 09:40:19;;;;;;;27.70;6.20;;;;;;;;;;4982087;28;20037;-61
2022/11/07 09:42:46;;;;;;;30.15;5.32;;;;;;;;;;4982440;28;20025;-61
2022/11/07 09:45:12;;;;;;;29.95;5.10;;;;;;;;;;4981610;28;20054;-61
2022/11/07 09:47:43;;;;;;;30.83;5.57;;;;;;;;;;4978320;28;20045;-61
2022/11/07 09:50:18;;;;;;;32.15;5.03;;;;;;;;;;4986102;28;20034;-61
2022/11/07 09:52:44;;;;;;;24.10;5.22;;;;;;;;;;4977762;28;20023;-61
2022/11/07 09:55:16;;;;;;;28.63;5.47;;;;;;;;;;4979912;28;20500;-61
2022/11/07 09:57:43;;;;;;;29.90;4.25;;;;;;;;;;4979962;28;20080;-61
2022/11/07 10:00:14;;;;;;;30.15;5.47;;;;;;;;;;4985718;28;20041;-61
2022/11/07 10:02:43;;;;;;;34.97;5.18;;;;;;;;;;4974297;28;20072;-61
2022/11/07 10:05:12;;;;;;;28.45;5.60;;;;;;;;;;4980911;28;20034;-61
2022/11/07 10:07:45;;;;;;;25.70;4.45;;;;;;;;;;4979628;28;20023;-61
2022/11/07 10:10:15;;;;;;;23.52;4.90;;;;;;;;;;4983080;28;20758;-61
2022/11/07 10:12:44;;;;;;;25.98;4.53;;;;;;;;;;4982280;28;20068;-61
2022/11/07 10:15:15;;;;;;;24.90;4.57;;;;;;;;;;4982384;28;20041;-61
2022/11/07 10:17:41;;;;;;;25.25;4.90;;;;;;;;;;4978369;28;20042;-61
2022/11/07 10:20:26;;;;;;;30.75;5.38;;;;;;;;;;4982100;28;20019;-60
2022/11/07 10:22:58;;;;;;;31.23;4.68;;;;;;;;;;4982391;28;20049;-61
2022/11/07 10:25:28;;;;;;;23.70;4.88;;;;;;;;;;4973802;28;20031;-61
2022/11/07 10:28:09;;;;;;;19.30;4.35;;;;;;;;;;4975322;28;20038;-61
2022/11/07 10:30:35;;;;;;;33.38;5.22;;;;;;;;;;4981893;28;20054;-61
2022/11/07 10:33:19;;;;;;;20.52;4.78;;;;;;;;;;4978722;28;20109;-61
2022/11/07 10:35:49;;;;;;;29.10;4.50;;;;;;;;;;4977457;28;20026;-60
2022/11/07 10:38:18;;;;;;;27.40;5.28;;;;;;;;;;4979823;28;20188;-61
2022/11/07 10:40:45;;;;;;;27.83;5.13;;;;;;;;;;4977869;28;20126;-61
2022/11/07 10:43:20;;;;;;;32.10;5.10;;;;;;;;;;4979786;28;20035;-61
2022/11/07 10:45:46;;;;;;;28.85;5.82;;;;;;;;;;4983487;28;20027;-61
2022/11/07 10:48:13;;;;;;;25.55;5.93;;;;;;;;;;4983630;28;20357;-61
2022/11/07 10:50:39;;;;;;;22.17;4.47;;;;;;;;;;4978225;28;20168;-61
2022/11/07 10:53:08;;;;;;;24.88;4.20;;;;;;;;;;4981921;28;20040;-61
2022/11/07 10:55:45;;;;;;;27.80;4.35;;;;;;;;;;4979290;28;20043;-61
2022/11/07 10:58:20;;;;;;;27.55;5.38;;;;;;;;;;4981309;28;20117;-61
2022/11/07 11:01:00;;;;;;;29.08;5.45;;;;;;;;;;4977272;28;20034;-61
2022/11/07 11:03:53;;;;;;;28.58;5.20;;;;;;;;;;4981078;28;20039;-61
2022/11/07 11:06:24;;;;;;;33.57;6.03;;;;;;;;;;4984469;28;20042;-61
2022/11/07 11:08:51;;;;;;;24.30;4.65;;;;;;;;;;4982197;28;20034;-61
2022/11/07 11:11:23;;;;;;;22.15;3.90;;;;;;;;;;4980764;28;20031;-61
2022/11/07 11:13:49;;;;;;;27.03;5.00;;;;;;;;;;4981759;28;20088;-61
2022/11/07 11:16:15;;;;;;;31.17;6.47;;;;;;;;;;4986490;28;20423;-61
2022/11/07 11:18:51;;;;;;;26.17;5.10;;;;;;;;;;4983688;28;20030;-61
2022/11/07 11:21:17;;;;;;;26.35;4.43;;;;;;;;;;4981762;28;20098;-60
2022/11/07 11:23:44;;;;;;;27.92;5.32;;;;;;;;;;4985326;28;20424;-61
2022/11/07 11:26:13;;;;;;;28.50;4.68;;;;;;;;;;4985227;28;20083;-60
2022/11/07 11:28:44;;;;;;;29.02;5.03;;;;;;;;;;4985693;28;20121;-61
2022/11/07 11:31:19;;;;;;;28.65;5.13;;;;;;;;;;4978179;28;20033;-61
2022/11/07 11:33:48;;;;;;;27.40;4.40;;;;;;;;;;4988405;28;20030;-61
2022/11/07 11:36:34;;;;;;;32.42;6.93;;;;;;;;;;4992044;28;20038;-61
2022/11/07 11:39:02;;;;;;;20.92;5.68;;;;;;;;;;4987434;28;20529;-61
2022/11/07 11:41:34;;;;;;;31.00;5.53;;;;;;;;;;4987989;28;20069;-60
2022/11/07 11:44:04;;;;;;;30.50;5.65;;;;;;;;;;4989242;28;20026;-61
2022/11/07 11:46:32;;;;;;;17.70;4.75;;;;;;;;;;4978484;28;20045;-61
2022/11/07 11:49:01;;;;;;;29.10;5.22;;;;;;;;;;4982727;28;20057;-62
2022/11/07 11:51:39;;;;;;;25.98;4.38;;;;;;;;;;4984380;28;20027;-62
2022/11/07 11:54:10;;;;;;;20.73;4.28;;;;;;;;;;4987999;28;20032;-61
2022/11/07 11:56:47;;;;;;;26.67;6.18;;;;;;;;;;4986830;28;20069;-61
2022/11/07 11:59:25;;;;;;;31.23;5.47;;;;;;;;;;4984433;28;20023;-61
2022/11/07 12:02:10;;;;;;;28.60;5.63;;;;;;;;;;4982440;28;20023;-62
2022/11/07 12:04:47;;;;;;;22.90;5.13;;;;;;;;;;4986449;28;20505;-61
2022/11/07 12:07:19;;;;;;;32.25;4.63;;;;;;;;;;4985667;28;20026;-62
2022/11/07 12:09:48;;;;;;;32.47;4.45;;;;;;;;;;4988321;28;20030;-62
2022/11/07 12:12:36;;;;;;;25.15;4.65;;;;;;;;;;4986428;28;20062;-61
2022/11/07 12:15:14;;;;;;;23.05;5.10;;;;;;;;;;4988616;28;20064;-62
2022/11/07 12:18:00;;;;;;;23.10;4.43;;;;;;;;;;4989086;28;20096;-61
2022/11/07 12:20:32;;;;;;;23.92;4.50;;;;;;;;;;4987337;28;20038;-61
2022/11/07 12:22:58;;;;;;;28.95;4.72;;;;;;;;;;4983641;28;20042;-62
2022/11/07 12:25:42;;;;;;;27.02;4.90;;;;;;;;;;4982889;28;20046;-61
2022/11/07 12:28:27;;;;;;;20.60;3.80;;;;;;;;;;4986149;28;20034;-61
2022/11/07 12:30:59;;;;;;;27.02;4.93;;;;;;;;;;4988474;28;20054;-61
2022/11/07 12:33:25;;;;;;;23.98;4.40;;;;;;;;;;4988573;28;20061;-61
2022/11/07 12:36:12;;;;;;;14.30;3.47;;;;;;;;;;4991725;28;20042;-61
2022/11/07 12:38:38;;;;;;;25.10;4.03;;;;;;;;;;5028850;28;20048;-62
2022/11/07 12:41:04;;;;;;;23.88;4.97;;;;;;;;;;5023121;28;20034;-62
2022/11/07 12:43:48;;;;;;;32.28;4.55;;;;;;;;;;5023429;28;20041;-62
2022/11/07 12:46:14;;;;;;;52.17;6.32;;;;;;;;;;5032073;28;20033;-61
2022/11/07 12:48:48;;;;;;;24.77;4.65;;;;;;;;;;5031872;28;20087;-62
2022/11/07 12:51:46;;;;;;;27.02;4.30;;;;;;;;;;5030505;28;20029;-62
2022/11/07 12:54:18;;;;;;;33.35;6.80;;;;;;;;;;4972956;28;20049;-62
2022/11/07 12:56:45;;;;;;;25.35;4.68;;;;;;;;;;5027767;28;20034;-61
2022/11/07 12:59:14;;;;;;;29.02;6.95;;;;;;;;;;5026085;28;20125;-61
2022/11/07 13:01:55;;;;;;;30.70;5.38;;;;;;;;;;5021673;28;20037;-62
2022/11/07 13:04:27;;;;;;;31.10;4.95;;;;;;;;;;5022107;28;20048;-61
2022/11/07 13:07:04;;;;;;;25.17;4.68;;;;;;;;;;5023276;28;21470;-61
2022/11/07 13:09:30;;;;;;;29.40;4.85;;;;;;;;;;5025665;28;20163;-61
2022/11/07 13:12:02;;;;;;;24.45;4.43;;;;;;;;;;5020004;28;20033;-62
2022/11/07 13:14:33;;;;;;;29.73;5.15;;;;;;;;;;5020695;28;20407;-61
2022/11/07 13:17:08;;;;;;;34.45;5.95;;;;;;;;;;4984543;28;20023;-62
2022/11/07 13:19:35;;;;;;;30.23;5.10;;;;;;;;;;4981672;28;20377;-62
2022/11/07 13:22:04;;;;;;;24.63;4.50;;;;;;;;;;4981456;28;20025;-62
2022/11/07 13:24:31;;;;;;;27.48;4.50;;;;;;;;;;4985959;28;20031;-62
2022/11/07 13:26:58;;;;;;;21.45;4.53;;;;;;;;;;4984882;28;20050;-61
2022/11/07 13:29:35;;;;;;;19.48;3.47;;;;;;;;;;4977699;28;20034;-62
2022/11/07 13:32:11;;;;;;;24.80;5.03;;;;;;;;;;4979886;28;20031;-61
2022/11/07 13:34:55;;;;;;;24.52;3.90;;;;;;;;;;4988326;28;20026;-61
2022/11/07 13:37:24;;;;;;;29.65;5.60;;;;;;;;;;4982632;28;20041;-62
2022/11/07 13:39:53;;;;;;;22.33;4.10;;;;;;;;;;4983937;28;20552;-62
2022/11/07 13:42:20;;;;;;;17.88;3.85;;;;;;;;;;4983141;28;20061;-62
2022/11/07 13:44:51;;;;;;;22.95;4.30;;;;;;;;;;4984017;28;20051;-61
2022/11/07 13:47:20;;;;;;;19.08;3.58;;;;;;;;;;4980704;28;20077;-62
2022/11/07 13:49:47;;;;;;;16.17;2.58;;;;;;;;;;4988074;28;20427;-61
2022/11/07 13:52:19;;;;;;;18.88;2.25;;;;;;;;;;4984935;28;20034;-61
2022/11/07 13:54:52;;;;;;;9.35;1.92;;;;;;;;;;4987674;28;20026;-61
2022/11/07 13:57:27;;;;;;;11.07;2.13;;;;;;;;;;4987251;28;20041;-61
2022/11/07 14:00:03;;;;;;;9.52;2.10;;;;;;;;;;4982099;28;20026;-61
2022/11/07 14:02:38;;;;;;;6.68;1.80;;;;;;;;;;4982065;28;20770;-61
2022/11/07 14:05:09;;;;;;;8.45;2.00;;;;;;;;;;4977205;28;20054;-62
2022/11/07 14:07:40;;;;;;;9.05;2.00;;;;;;;;;;4978856;28;20033;-61
2022/11/07 14:10:13;;;;;;;8.02;1.80;;;;;;;;;;4980482;28;20023;-61
2022/11/07 14:12:40;;;;;;;13.63;2.72;;;;;;;;;;4976182;28;20124;-61
2022/11/07 14:15:13;;;;;;;11.73;2.33;;;;;;;;;;4984450;28;20023;-62
2022/11/07 14:17:39;;;;;;;10.57;2.45;;;;;;;;;;4987228;28;20433;-61
2022/11/07 14:20:14;;;;;;;15.70;3.05;;;;;;;;;;4984471;28;20489;-61
2022/11/07 14:22:49;;;;;;;13.77;2.92;;;;;;;;;;4986311;28;20089;-61
2022/11/07 14:25:23;;;;;;;12.75;2.50;;;;;;;;;;4979597;28;20046;-61
2022/11/07 14:27:49;;;;;;;15.70;3.78;;;;;;;;;;4985875;28;20031;-61
2022/11/07 14:30:17;;;;;;;11.35;2.40;;;;;;;;;;4987142;28;20447;-61
2022/11/07 14:32:47;;;;;;;13.38;2.30;;;;;;;;;;4984199;28;20042;-61
2022/11/07 14:35:17;;;;;;;14.13;2.80;;;;;;;;;;4978253;28;20558;-62
2022/11/07 14:37:43;;;;;;;11.52;2.92;;;;;;;;;;4977898;28;20031;-61
2022/11/07 14:40:10;;;;;;;7.57;2.78;;;;;;;;;;4987022;28;20102;-62
2022/11/07 14:42:36;;;;;;;14.50;3.08;;;;;;;;;;4989084;28;20109;-61
2022/11/07 14:45:03;;;;;;;16.45;2.75;;;;;;;;;;4980064;28;20395;-61
2022/11/07 14:47:32;;;;;;;9.82;3.08;;;;;;;;;;4976520;28;20099;-62